Time;durP1;ratioP1;P1;durP2;ratioP2;P2;SDS_P1;SDS_P2;PMS_P1;PMS_P2;Temp;Humidity;BMP_temperature;BMP_pressure;BME280_temperature;BME280_humidity;BME280_pressure;Samples;Min_cycle;Max_cycle;Signal;HPM_P1;HPM_P2
2023/04/10 00:01:20;;;;;;;17.63;11.97;;;10.00;99.90;;;;;;4930198;28;37242;-78
2023/04/10 00:03:46;;;;;;;16.67;12.07;;;10.00;99.90;;;;;;4930671;28;37884;-78
2023/04/10 00:06:12;;;;;;;17.45;12.90;;;9.90;99.90;;;;;;4948330;28;38782;-78
2023/04/10 00:08:38;;;;;;;17.08;11.63;;;9.90;99.90;;;;;;4933364;28;37748;-80
2023/04/10 00:11:04;;;;;;;17.87;13.20;;;9.90;99.90;;;;;;4933620;28;41044;-80
2023/04/10 00:13:31;;;;;;;17.38;12.43;;;9.90;99.90;;;;;;4926192;28;38574;-79
2023/04/10 00:15:57;;;;;;;14.57;12.17;;;9.90;99.90;;;;;;4946751;28;37310;-80
2023/04/10 00:18:27;;;;;;;14.07;11.02;;;9.90;99.90;;;;;;4948252;28;38950;-79
2023/04/10 00:20:53;;;;;;;14.68;11.85;;;9.80;99.90;;;;;;4933383;28;37740;-79
2023/04/10 00:23:19;;;;;;;16.80;11.73;;;9.80;99.90;;;;;;4930626;28;38505;-80
2023/04/10 00:25:47;;;;;;;16.52;12.00;;;9.80;99.90;;;;;;4951645;28;37164;-79
2023/04/10 00:28:14;;;;;;;15.98;12.15;;;9.80;99.90;;;;;;4932906;28;38063;-79
2023/04/10 00:30:40;;;;;;;17.30;12.93;;;9.80;99.90;;;;;;4946927;28;38546;-79
2023/04/10 00:33:06;;;;;;;16.42;12.45;;;9.70;99.90;;;;;;4927296;28;38130;-79
2023/04/10 00:35:32;;;;;;;15.25;11.65;;;9.70;99.90;;;;;;4937675;28;36325;-79
2023/04/10 00:37:58;;;;;;;14.35;11.13;;;9.70;99.90;;;;;;4964075;28;38648;-79
2023/04/10 00:40:25;;;;;;;17.02;12.13;;;9.60;99.90;;;;;;4937467;28;39132;-79
2023/04/10 00:42:51;;;;;;;14.93;11.57;;;9.60;99.90;;;;;;4933350;28;37464;-78
2023/04/10 00:45:17;;;;;;;16.83;12.15;;;9.60;99.90;;;;;;4935396;28;38516;-79
2023/04/10 00:47:44;;;;;;;15.50;12.20;;;9.60;99.90;;;;;;4944822;28;37557;-79
2023/04/10 00:50:10;;;;;;;18.13;12.30;;;9.50;99.90;;;;;;4957699;28;40240;-79
2023/04/10 00:52:37;;;;;;;16.33;11.57;;;9.50;99.90;;;;;;4957299;28;38938;-79
2023/04/10 00:55:04;;;;;;;19.00;12.60;;;9.50;99.90;;;;;;4942163;28;36133;-79
2023/04/10 00:57:32;;;;;;;16.55;12.52;;;9.40;99.90;;;;;;4952451;28;49401;-79
2023/04/10 00:59:59;;;;;;;18.80;12.67;;;9.40;99.90;;;;;;4949988;28;37801;-80
2023/04/10 01:02:25;;;;;;;18.57;12.70;;;9.40;99.90;;;;;;5337111;23;39503;-76
2023/04/10 01:04:52;;;;;;;16.97;12.37;;;9.40;99.90;;;;;;4949334;28;36525;-78
2023/04/10 01:07:37;;;;;;;16.97;11.83;;;9.30;99.90;;;;;;4932649;28;37618;-80
2023/04/10 01:10:41;;;;;;;16.03;11.77;;;9.40;99.90;;;;;;4944361;28;37570;-80
2023/04/10 01:13:32;;;;;;;15.73;12.40;;;9.50;99.90;;;;;;4948323;28;45976;-79
2023/04/10 01:16:10;;;;;;;15.53;12.23;;;9.50;99.90;;;;;;4951102;28;38055;-80
2023/04/10 01:18:49;;;;;;;15.82;11.60;;;9.50;99.90;;;;;;4933399;28;47000;-79
2023/04/10 01:21:16;;;;;;;17.77;12.32;;;9.60;99.90;;;;;;4925346;28;36311;-79
2023/04/10 01:23:45;;;;;;;16.90;11.93;;;9.60;99.90;;;;;;4950165;28;38835;-79
2023/04/10 01:26:18;;;;;;;16.63;12.30;;;9.50;99.90;;;;;;4947967;28;36599;-79
2023/04/10 01:28:53;;;;;;;16.03;12.13;;;9.50;99.90;;;;;;4952343;28;38935;-79
2023/04/10 01:31:40;;;;;;;18.10;11.93;;;9.50;99.90;;;;;;4936258;28;38930;-79
2023/04/10 01:34:10;;;;;;;16.37;12.83;;;9.50;99.90;;;;;;4936070;28;39247;-78
2023/04/10 01:36:50;;;;;;;17.63;12.63;;;9.50;99.90;;;;;;4953255;28;37282;-80
2023/04/10 01:39:19;;;;;;;17.30;12.63;;;9.40;99.90;;;;;;4937891;28;38976;-79
2023/04/10 01:41:49;;;;;;;16.07;12.90;;;9.40;99.90;;;;;;4955209;28;37400;-79
2023/04/10 01:44:20;;;;;;;16.35;12.27;;;9.40;99.90;;;;;;4938051;28;37442;-80
2023/04/10 01:46:48;;;;;;;15.03;11.97;;;9.40;99.90;;;;;;4933408;28;36100;-81
2023/04/10 01:49:16;;;;;;;15.33;11.90;;;9.30;99.90;;;;;;4941591;28;38487;-79
2023/04/10 01:51:43;;;;;;;16.65;12.77;;;9.30;99.90;;;;;;4937139;28;37655;-79
2023/04/10 01:54:10;;;;;;;21.33;13.27;;;9.30;99.90;;;;;;4951795;28;39042;-79
2023/04/10 01:56:37;;;;;;;15.10;12.17;;;9.20;99.90;;;;;;4953465;28;37028;-79
2023/04/10 01:59:04;;;;;;;15.57;12.13;;;9.20;99.90;;;;;;4948489;28;39860;-78
2023/04/10 02:01:30;;;;;;;16.42;12.50;;;9.20;99.90;;;;;;4956516;28;38950;-79
2023/04/10 02:03:57;;;;;;;14.75;11.82;;;9.10;99.90;;;;;;4946453;28;38429;-79
2023/04/10 02:06:23;;;;;;;18.10;13.13;;;9.10;99.90;;;;;;4951326;28;37436;-79
2023/04/10 02:09:08;;;;;;;18.73;13.40;;;9.10;99.90;;;;;;4931522;28;38384;-79
2023/04/10 02:11:46;;;;;;;17.83;13.10;;;9.20;99.90;;;;;;4933953;28;47301;-79
2023/04/10 02:14:17;;;;;;;17.30;12.80;;;9.10;99.90;;;;;;4935121;28;37324;-79
2023/04/10 02:16:45;;;;;;;17.33;13.13;;;9.10;99.90;;;;;;4946813;28;37077;-79
2023/04/10 02:19:12;;;;;;;15.67;12.80;;;9.20;99.90;;;;;;4954684;28;38543;-79
2023/04/10 02:21:40;;;;;;;18.20;12.67;;;9.20;99.90;;;;;;4929725;28;37812;-79
2023/04/10 02:24:07;;;;;;;19.60;13.10;;;9.20;99.90;;;;;;4952801;28;38848;-78
2023/04/10 02:26:50;;;;;;;17.63;13.03;;;9.30;99.90;;;;;;4943127;28;36606;-78
2023/04/10 02:29:17;;;;;;;15.77;12.77;;;9.20;99.90;;;;;;4960494;28;39108;-78
2023/04/10 02:31:44;;;;;;;15.87;11.77;;;9.20;99.90;;;;;;4958188;28;38790;-79
2023/04/10 02:34:10;;;;;;;15.97;12.60;;;9.20;99.90;;;;;;4945685;28;37614;-79
2023/04/10 02:36:40;;;;;;;16.60;12.30;;;9.30;99.90;;;;;;4955572;28;37121;-78
2023/04/10 02:39:07;;;;;;;17.30;11.73;;;9.30;99.90;;;;;;4945096;28;37485;-79
2023/04/10 02:41:33;;;;;;;15.97;11.40;;;9.30;99.90;;;;;;4932236;28;37749;-79
2023/04/10 02:43:59;;;;;;;18.60;12.20;;;9.40;99.90;;;;;;4931782;28;37739;-79
2023/04/10 02:46:25;;;;;;;14.97;10.83;;;9.30;99.90;;;;;;4932131;28;36723;-79
2023/04/10 02:48:52;;;;;;;15.57;12.63;;;9.40;99.90;;;;;;4928894;28;37727;-79
2023/04/10 02:51:18;;;;;;;18.60;11.35;;;9.40;99.90;;;;;;4945449;28;39164;-79
2023/04/10 02:53:44;;;;;;;16.52;11.43;;;9.40;99.90;;;;;;4919492;28;37670;-79
2023/04/10 02:56:11;;;;;;;14.85;10.65;;;9.50;99.90;;;;;;4949317;28;37334;-79
2023/04/10 02:58:38;;;;;;;14.52;10.23;;;9.50;99.90;;;;;;4958825;28;38962;-79
2023/04/10 03:01:08;;;;;;;16.13;10.80;;;9.60;99.90;;;;;;4949740;28;39160;-80
2023/04/10 03:03:35;;;;;;;12.70;10.00;;;9.60;99.90;;;;;;4926090;28;38306;-79
2023/04/10 03:06:01;;;;;;;14.18;10.90;;;9.60;99.90;;;;;;4927331;28;36368;-79
2023/04/10 03:08:29;;;;;;;12.00;10.40;;;9.60;99.90;;;;;;4928389;28;46968;-79
2023/04/10 03:10:55;;;;;;;12.67;10.03;;;9.60;99.90;;;;;;4948098;28;38874;-79
2023/04/10 03:13:22;;;;;;;12.67;9.50;;;9.60;99.90;;;;;;4936409;28;37340;-79
2023/04/10 03:15:48;;;;;;;12.60;9.77;;;9.50;99.90;;;;;;4936144;28;36497;-78
2023/04/10 03:18:14;;;;;;;12.35;9.52;;;9.60;99.90;;;;;;4953623;28;38639;-79
2023/04/10 03:20:40;;;;;;;11.95;9.43;;;9.60;99.90;;;;;;4933680;28;37830;-79
2023/04/10 03:23:06;;;;;;;12.07;9.40;;;9.60;99.90;;;;;;4955949;28;38493;-78
2023/04/10 03:25:34;;;;;;;12.75;9.70;;;9.60;99.90;;;;;;4936552;28;36681;-79
2023/04/10 03:28:01;;;;;;;13.20;9.45;;;9.60;99.90;;;;;;4936840;28;38073;-79
2023/04/10 03:30:28;;;;;;;11.47;9.57;;;9.60;99.90;;;;;;4934865;28;47023;-79
2023/04/10 03:32:54;;;;;;;10.73;8.60;;;9.60;99.90;;;;;;4936293;28;37513;-79
2023/04/10 03:35:21;;;;;;;11.70;8.65;;;9.60;99.90;;;;;;4942007;28;36254;-79
2023/04/10 03:37:47;;;;;;;12.13;8.82;;;9.60;99.90;;;;;;4954281;28;38442;-79
2023/04/10 03:40:13;;;;;;;12.00;9.10;;;9.60;99.90;;;;;;4933728;28;39497;-79
2023/04/10 03:42:39;;;;;;;12.73;9.73;;;9.60;99.90;;;;;;4936532;28;38324;-79
2023/04/10 03:45:05;;;;;;;14.55;9.25;;;9.60;99.90;;;;;;4937059;28;36100;-79
2023/04/10 03:47:32;;;;;;;10.18;8.30;;;9.70;99.90;;;;;;4950060;28;38538;-79
2023/04/10 03:49:58;;;;;;;11.52;8.93;;;9.60;99.90;;;;;;4952569;28;39063;-80
2023/04/10 03:52:27;;;;;;;10.40;8.40;;;9.60;99.90;;;;;;4940742;28;38583;-79
2023/04/10 03:54:53;;;;;;;11.88;8.77;;;9.60;99.90;;;;;;4947427;28;36324;-79
2023/04/10 03:57:20;;;;;;;11.03;8.87;;;9.60;99.90;;;;;;4936035;28;38075;-79
2023/04/10 03:59:47;;;;;;;10.67;8.90;;;9.60;99.90;;;;;;4931134;28;38632;-79
2023/04/10 04:02:13;;;;;;;11.83;8.53;;;9.60;99.90;;;;;;4931486;28;36817;-79
2023/04/10 04:04:40;;;;;;;10.38;8.30;;;9.70;99.90;;;;;;4931752;28;36273;-79
2023/04/10 04:07:06;;;;;;;9.93;7.80;;;9.70;99.90;;;;;;4928893;28;38127;-78
2023/04/10 04:09:32;;;;;;;10.33;8.10;;;9.60;99.90;;;;;;4933320;28;38874;-79
2023/04/10 04:11:58;;;;;;;10.50;8.77;;;9.60;99.90;;;;;;4932031;28;38585;-79
2023/04/10 04:14:24;;;;;;;9.53;8.17;;;9.70;99.90;;;;;;4931251;28;36241;-79
2023/04/10 04:16:50;;;;;;;11.80;8.80;;;9.70;99.90;;;;;;4932142;28;37521;-79
2023/04/10 04:19:17;;;;;;;10.90;8.07;;;9.60;99.90;;;;;;4931054;28;37759;-79
2023/04/10 04:21:43;;;;;;;11.10;7.95;;;9.60;99.90;;;;;;4929125;28;38965;-79
2023/04/10 04:24:09;;;;;;;11.43;8.47;;;9.70;99.90;;;;;;4933633;28;36753;-79
2023/04/10 04:26:35;;;;;;;11.60;8.27;;;9.60;99.90;;;;;;4938590;28;37567;-80
2023/04/10 04:29:01;;;;;;;11.40;8.07;;;9.60;99.90;;;;;;4932895;28;40194;-80
2023/04/10 04:31:31;;;;;;;10.27;7.93;;;9.60;99.90;;;;;;4931314;28;48245;-79
2023/04/10 04:34:00;;;;;;;10.53;8.60;;;9.60;99.90;;;;;;4935885;28;37129;-79
2023/04/10 04:36:27;;;;;;;10.07;7.87;;;9.60;99.90;;;;;;4938254;28;37703;-79
2023/04/10 04:38:53;;;;;;;14.30;7.77;;;9.60;99.90;;;;;;4933648;28;37409;-80
2023/04/10 04:41:20;;;;;;;10.03;8.70;;;9.50;99.90;;;;;;4931138;28;38807;-80
2023/04/10 04:43:46;;;;;;;9.57;7.63;;;9.40;99.90;;;;;;4936781;28;35833;-80
2023/04/10 04:46:12;;;;;;;10.77;8.10;;;9.40;99.90;;;;;;4937632;28;39040;-79
2023/04/10 04:48:38;;;;;;;8.60;7.60;;;9.40;99.90;;;;;;4945632;28;38833;-79
2023/04/10 04:51:07;;;;;;;10.13;8.13;;;9.40;99.90;;;;;;4932061;28;37196;-80
2023/04/10 04:53:33;;;;;;;9.73;7.53;;;9.40;99.90;;;;;;4934029;28;36072;-79
2023/04/10 04:55:59;;;;;;;12.23;7.37;;;9.40;99.90;;;;;;4931975;28;37661;-79
2023/04/10 04:58:25;;;;;;;8.43;7.23;;;9.40;99.90;;;;;;4936435;28;38817;-79
2023/04/10 05:00:51;;;;;;;10.40;7.43;;;9.40;99.90;;;;;;4937410;28;39423;-79
2023/04/10 05:03:17;;;;;;;12.30;7.70;;;9.30;99.90;;;;;;4915564;28;35964;-80
2023/04/10 05:05:44;;;;;;;11.73;8.20;;;9.30;99.90;;;;;;4916442;29;38591;-79
2023/04/10 05:08:10;;;;;;;10.70;8.43;;;9.40;99.90;;;;;;4912363;29;39025;-78
2023/04/10 05:10:36;;;;;;;12.47;7.77;;;9.40;99.90;;;;;;4914708;29;37934;-79
2023/04/10 05:13:02;;;;;;;11.67;7.60;;;9.40;99.90;;;;;;4916810;29;35795;-79
2023/04/10 05:15:29;;;;;;;10.37;7.57;;;9.30;99.90;;;;;;4918767;29;38668;-79
2023/04/10 05:17:55;;;;;;;9.87;7.30;;;9.30;99.90;;;;;;4913431;29;39558;-79
2023/04/10 05:20:21;;;;;;;9.00;7.33;;;9.40;99.90;;;;;;4914453;28;39295;-80
2023/04/10 05:22:47;;;;;;;8.67;7.17;;;9.40;99.90;;;;;;4916218;29;35954;-79
2023/04/10 05:25:13;;;;;;;10.23;7.73;;;9.40;99.90;;;;;;4919210;29;39174;-79
2023/04/10 05:27:39;;;;;;;11.33;8.03;;;9.40;99.90;;;;;;4907630;29;37983;-79
2023/04/10 05:30:06;;;;;;;9.60;7.87;;;9.40;99.90;;;;;;4908535;29;37124;-78
2023/04/10 05:32:33;;;;;;;9.47;7.73;;;9.50;99.90;;;;;;4938763;28;35749;-79
2023/04/10 05:34:59;;;;;;;9.33;7.53;;;9.50;99.90;;;;;;4918701;29;39250;-78
2023/04/10 05:37:26;;;;;;;9.73;7.60;;;9.50;99.90;;;;;;4922665;29;37066;-79
2023/04/10 05:39:52;;;;;;;10.27;7.77;;;9.50;99.90;;;;;;4918778;29;40100;-79
2023/04/10 05:42:18;;;;;;;9.57;7.70;;;9.50;99.90;;;;;;4915007;29;35941;-79
2023/04/10 05:44:45;;;;;;;8.87;7.17;;;9.50;99.90;;;;;;4914672;28;38430;-79
2023/04/10 05:47:11;;;;;;;9.77;7.20;;;9.50;99.90;;;;;;4915552;29;38811;-78
2023/04/10 05:49:37;;;;;;;10.40;8.10;;;9.50;99.90;;;;;;4913262;29;38859;-79
2023/04/10 05:52:03;;;;;;;8.93;6.97;;;9.50;99.90;;;;;;4909472;28;35963;-78
2023/04/10 05:54:29;;;;;;;8.63;6.80;;;9.50;99.90;;;;;;4915772;29;38497;-79
2023/04/10 05:56:55;;;;;;;8.15;7.22;;;9.60;99.90;;;;;;4918660;28;39507;-79
2023/04/10 05:59:22;;;;;;;9.93;7.18;;;9.60;99.90;;;;;;4914503;29;38560;-80
2023/04/10 06:01:48;;;;;;;10.75;7.88;;;9.60;99.90;;;;;;4931770;28;37433;-79
2023/04/10 06:04:14;;;;;;;8.30;6.83;;;9.60;99.90;;;;;;4937563;28;39404;-79
2023/04/10 06:06:40;;;;;;;8.00;6.87;;;9.60;99.90;;;;;;4960321;28;39801;-79
2023/04/10 06:09:06;;;;;;;9.40;7.38;;;9.70;99.90;;;;;;4937269;28;37316;-80
2023/04/10 06:11:32;;;;;;;8.82;7.63;;;9.70;99.90;;;;;;4936101;28;36177;-79
2023/04/10 06:13:59;;;;;;;9.90;7.22;;;9.70;99.90;;;;;;4929696;28;37502;-79
2023/04/10 06:16:25;;;;;;;9.10;6.90;;;9.80;99.90;;;;;;4929491;28;39273;-79
2023/04/10 06:18:52;;;;;;;9.00;7.18;;;9.80;99.90;;;;;;4929553;28;38014;-80
2023/04/10 06:21:19;;;;;;;9.15;6.38;;;9.80;99.90;;;;;;4925040;28;36095;-79
2023/04/10 06:23:45;;;;;;;9.20;6.88;;;9.80;99.90;;;;;;4945168;28;38930;-79
2023/04/10 06:26:11;;;;;;;9.68;7.57;;;9.90;99.90;;;;;;4928477;28;37746;-80
2023/04/10 06:28:37;;;;;;;8.30;6.53;;;9.90;99.90;;;;;;4931557;28;36515;-79
2023/04/10 06:31:05;;;;;;;9.00;6.40;;;10.00;99.90;;;;;;4930184;28;35960;-79
2023/04/10 06:33:34;;;;;;;8.52;6.47;;;10.00;99.90;;;;;;4942161;28;38900;-79
2023/04/10 06:36:01;;;;;;;7.90;6.68;;;10.00;99.90;;;;;;4922491;28;37769;-77
2023/04/10 06:38:27;;;;;;;8.02;6.97;;;10.10;99.90;;;;;;4940645;28;47228;-77
2023/04/10 06:40:53;;;;;;;10.48;6.95;;;10.10;99.90;;;;;;4940090;28;36591;-78
2023/04/10 06:43:19;;;;;;;10.85;7.03;;;10.20;99.90;;;;;;4940971;28;39509;-78
2023/04/10 06:45:45;;;;;;;9.15;7.25;;;10.30;99.90;;;;;;4924122;28;37882;-78
2023/04/10 06:48:11;;;;;;;8.85;6.88;;;10.20;99.90;;;;;;4928006;28;38384;-77
2023/04/10 06:50:37;;;;;;;8.32;6.88;;;10.30;99.90;;;;;;4940097;28;38246;-78
2023/04/10 06:53:03;;;;;;;8.18;5.95;;;10.30;99.90;;;;;;4940668;28;38863;-78
2023/04/10 06:55:30;;;;;;;8.65;7.10;;;10.30;99.90;;;;;;4940252;28;38533;-78
2023/04/10 06:57:56;;;;;;;8.90;6.43;;;10.40;99.90;;;;;;4938717;28;38893;-78
2023/04/10 07:00:22;;;;;;;8.30;7.03;;;10.40;99.90;;;;;;4921747;28;36196;-77
2023/04/10 07:02:48;;;;;;;10.13;6.82;;;10.50;99.90;;;;;;4945699;28;40373;-78
2023/04/10 07:05:15;;;;;;;7.88;7.07;;;10.50;99.90;;;;;;4917967;28;37814;-78
2023/04/10 07:07:41;;;;;;;8.50;6.65;;;10.60;99.90;;;;;;4924983;28;37285;-77
2023/04/10 07:10:08;;;;;;;9.18;6.85;;;10.60;99.90;;;;;;4924658;28;35662;-77
2023/04/10 07:12:34;;;;;;;7.88;6.78;;;10.70;99.90;;;;;;4919415;28;40470;-77
2023/04/10 07:15:00;;;;;;;14.55;7.63;;;10.70;99.90;;;;;;4936763;28;39802;-78
2023/04/10 07:17:27;;;;;;;7.93;6.85;;;10.70;99.90;;;;;;4932237;28;37449;-78
2023/04/10 07:19:53;;;;;;;8.82;7.07;;;10.70;99.90;;;;;;4922074;28;35889;-78
2023/04/10 07:22:19;;;;;;;8.68;6.47;;;10.80;99.90;;;;;;4940489;28;38831;-77
2023/04/10 07:24:45;;;;;;;9.65;7.35;;;10.80;99.90;;;;;;4927255;28;36441;-77
2023/04/10 07:27:11;;;;;;;7.85;6.50;;;10.80;99.90;;;;;;4923261;28;38728;-75
2023/04/10 07:29:37;;;;;;;8.88;7.03;;;10.80;99.90;;;;;;4923048;28;36071;-77
2023/04/10 07:32:04;;;;;;;8.00;7.20;;;10.80;99.90;;;;;;4923034;28;38495;-77
2023/04/10 07:34:31;;;;;;;10.18;7.00;;;10.90;99.90;;;;;;4920709;28;37705;-77
2023/04/10 07:36:57;;;;;;;10.32;7.18;;;10.80;99.90;;;;;;4940198;28;39130;-77
2023/04/10 07:39:23;;;;;;;11.93;7.35;;;10.90;99.90;;;;;;4927978;28;36164;-77
2023/04/10 07:41:52;;;;;;;9.10;7.18;;;10.90;99.90;;;;;;4934693;28;38274;-76
2023/04/10 07:44:18;;;;;;;10.15;7.82;;;11.00;99.90;;;;;;4950639;28;38590;-77
2023/04/10 07:46:45;;;;;;;8.80;6.65;;;11.10;99.90;;;;;;4929893;28;37405;-77
2023/04/10 07:49:11;;;;;;;8.35;6.60;;;11.00;99.90;;;;;;4944725;28;36746;-78
2023/04/10 07:51:37;;;;;;;8.98;7.63;;;11.10;99.90;;;;;;4915032;28;37972;-77
2023/04/10 07:54:03;;;;;;;8.48;7.07;;;11.10;99.90;;;;;;4935965;28;37325;-77
2023/04/10 07:56:32;;;;;;;9.57;7.38;;;11.10;99.90;;;;;;4931252;28;37038;-77
2023/04/10 07:58:59;;;;;;;8.70;7.47;;;11.20;99.90;;;;;;4944398;28;36986;-78
2023/04/10 08:01:27;;;;;;;10.45;7.47;;;11.10;99.90;;;;;;4925399;28;38943;-77
2023/04/10 08:03:55;;;;;;;8.98;7.15;;;11.10;99.90;;;;;;4919436;28;38513;-78
2023/04/10 08:06:21;;;;;;;9.85;6.90;;;11.10;99.90;;;;;;4942880;28;38692;-79
2023/04/10 08:08:47;;;;;;;9.65;7.43;;;11.20;99.90;;;;;;4922182;28;36412;-78
2023/04/10 08:11:28;;;;;;;7.40;6.28;;;11.20;99.90;;;;;;4928041;28;37916;-77
2023/04/10 08:13:56;;;;;;;9.23;6.68;;;11.20;99.90;;;;;;4926711;28;38519;-78
2023/04/10 08:16:27;;;;;;;8.50;7.35;;;11.30;99.90;;;;;;4929060;28;37789;-77
2023/04/10 08:18:55;;;;;;;10.13;7.22;;;11.50;99.90;;;;;;4925107;28;37096;-78
2023/04/10 08:21:22;;;;;;;9.43;7.15;;;11.50;99.90;;;;;;4927937;28;40042;-78
2023/04/10 08:23:53;;;;;;;12.07;7.40;;;11.60;99.90;;;;;;4929092;28;39497;-76
2023/04/10 08:26:20;;;;;;;10.52;7.25;;;11.60;99.90;;;;;;4936060;28;39705;-78
2023/04/10 08:28:49;;;;;;;8.27;7.38;;;11.60;99.90;;;;;;4937330;28;37133;-77
2023/04/10 08:31:16;;;;;;;10.35;7.00;;;11.70;99.90;;;;;;4938645;28;39750;-77
2023/04/10 08:33:42;;;;;;;7.43;6.63;;;11.70;99.90;;;;;;4937876;28;39247;-77
2023/04/10 08:36:09;;;;;;;7.88;6.68;;;11.70;99.90;;;;;;4914228;28;37405;-77
2023/04/10 08:38:35;;;;;;;7.85;7.05;;;11.80;99.90;;;;;;4924884;28;35397;-76
2023/04/10 08:41:01;;;;;;;9.07;7.07;;;12.00;99.90;;;;;;4928943;28;38428;-77
2023/04/10 08:43:27;;;;;;;7.82;7.03;;;12.00;99.90;;;;;;4947884;28;48330;-77
2023/04/10 08:45:55;;;;;;;9.82;6.82;;;12.00;99.90;;;;;;4928205;28;37267;-78
2023/04/10 08:48:30;;;;;;;9.48;7.18;;;12.00;99.90;;;;;;4923080;28;36118;-78
2023/04/10 08:51:00;;;;;;;8.55;7.20;;;12.00;99.90;;;;;;4937028;28;41503;-77
2023/04/10 08:53:30;;;;;;;7.20;6.40;;;12.10;99.90;;;;;;4930720;28;39106;-78
2023/04/10 08:55:57;;;;;;;7.88;6.68;;;12.20;99.90;;;;;;4946042;28;37564;-77
2023/04/10 08:58:23;;;;;;;7.25;6.53;;;12.20;99.90;;;;;;4928160;28;36569;-80
2023/04/10 09:00:50;;;;;;;7.32;6.22;;;12.20;99.90;;;;;;4915980;28;39374;-78
2023/04/10 09:03:17;;;;;;;7.43;6.35;;;12.20;99.90;;;;;;4924531;28;37274;-76
2023/04/10 09:05:43;;;;;;;8.77;6.82;;;12.10;99.90;;;;;;4922783;28;38722;-77
2023/04/10 09:08:12;;;;;;;8.45;6.78;;;12.20;99.90;;;;;;4945721;28;36930;-76
2023/04/10 09:10:38;;;;;;;9.02;6.88;;;12.30;99.90;;;;;;4919638;28;38965;-76
2023/04/10 09:13:04;;;;;;;7.38;6.68;;;12.40;99.90;;;;;;4917616;28;37877;-77
2023/04/10 09:15:59;;;;;;;8.65;6.50;;;12.30;99.90;;;;;;4944454;28;38256;-76
2023/04/10 09:18:50;;;;;;;8.82;6.80;;;12.40;99.90;;;;;;4937181;28;37988;-78
2023/04/10 09:21:18;;;;;;;8.15;6.78;;;12.30;99.90;;;;;;4938250;28;37542;-78
2023/04/10 09:23:46;;;;;;;8.30;6.40;;;12.40;99.90;;;;;;4939954;28;38583;-77
2023/04/10 09:26:27;;;;;;;8.02;6.07;;;12.40;99.90;;;;;;4924407;28;38363;-77
2023/04/10 09:29:01;;;;;;;8.98;6.78;;;12.50;99.90;;;;;;4941742;28;36977;-78
2023/04/10 09:31:36;;;;;;;8.55;6.47;;;12.70;99.90;;;;;;4921712;28;47001;-77
2023/04/10 09:34:13;;;;;;;9.25;7.35;;;12.80;99.90;;;;;;4923514;28;38288;-78
2023/04/10 09:36:41;;;;;;;6.72;6.03;;;13.00;99.90;;;;;;4921089;28;37269;-77
2023/04/10 09:39:09;;;;;;;8.63;6.97;;;13.20;99.90;;;;;;4941558;28;37040;-77
2023/04/10 09:41:47;;;;;;;7.47;6.18;;;13.00;99.90;;;;;;4944295;28;38538;-77
2023/04/10 09:44:13;;;;;;;6.60;5.97;;;13.20;99.90;;;;;;4947485;28;39857;-77
2023/04/10 09:46:39;;;;;;;8.70;7.05;;;13.30;99.90;;;;;;4945644;28;36243;-77
2023/04/10 09:49:06;;;;;;;7.80;6.32;;;13.30;99.90;;;;;;4943234;28;36710;-77
2023/04/10 09:51:34;;;;;;;8.25;6.43;;;13.40;99.90;;;;;;4924816;28;37691;-78
2023/04/10 09:54:03;;;;;;;8.30;6.45;;;13.30;99.90;;;;;;4940897;28;38674;-78
2023/04/10 09:56:32;;;;;;;8.52;7.25;;;13.30;99.90;;;;;;4916387;28;47040;-77
2023/04/10 09:59:00;;;;;;;9.48;6.10;;;13.20;99.90;;;;;;4945865;28;36537;-77
2023/04/10 10:01:27;;;;;;;7.18;6.22;;;13.30;99.90;;;;;;4946508;28;38992;-78
2023/04/10 10:03:55;;;;;;;8.45;5.82;;;13.40;99.90;;;;;;4943839;28;39578;-77
2023/04/10 10:06:22;;;;;;;7.45;6.20;;;13.70;99.90;;;;;;4954078;28;36793;-78
2023/04/10 10:08:49;;;;;;;6.82;6.10;;;13.90;99.90;;;;;;4954944;28;36666;-77
2023/04/10 10:11:22;;;;;;;8.20;5.65;;;14.10;99.90;;;;;;4928639;28;37771;-77
2023/04/10 10:13:55;;;;;;;7.90;5.88;;;14.00;99.90;;;;;;4939865;28;37477;-79
2023/04/10 10:16:37;;;;;;;6.72;5.68;;;14.20;99.90;;;;;;4958289;28;38303;-80
2023/04/10 10:19:15;;;;;;;8.43;5.95;;;14.20;99.90;;;;;;4940450;28;37362;-79
2023/04/10 10:21:43;;;;;;;6.95;5.88;;;14.20;99.90;;;;;;4927380;28;37665;-78
2023/04/10 10:24:12;;;;;;;7.72;5.93;;;14.20;99.90;;;;;;4931704;28;38072;-78
2023/04/10 10:26:39;;;;;;;6.53;5.70;;;14.10;99.90;;;;;;4926184;28;37321;-77
2023/04/10 10:29:12;;;;;;;6.18;5.57;;;14.10;99.90;;;;;;4934263;28;37203;-78
2023/04/10 10:31:39;;;;;;;6.63;5.28;;;14.20;99.90;;;;;;4928309;28;38555;-78
2023/04/10 10:34:08;;;;;;;6.45;5.47;;;14.40;99.90;;;;;;4929123;28;37684;-78
2023/04/10 10:36:35;;;;;;;9.38;5.80;;;14.80;99.90;;;;;;4951686;28;38234;-77
2023/04/10 10:39:29;;;;;;;6.40;5.18;;;15.10;99.90;;;;;;4935068;28;38046;-79
2023/04/10 10:42:00;;;;;;;7.18;5.57;;;15.30;99.90;;;;;;4936467;28;48463;-79
2023/04/10 10:44:51;;;;;;;9.15;5.70;;;15.20;99.90;;;;;;4943360;28;47471;-80
2023/04/10 10:47:21;;;;;;;7.57;5.47;;;15.20;99.90;;;;;;4934314;28;38357;-79
2023/04/10 10:49:53;;;;;;;7.03;5.47;;;15.40;99.90;;;;;;4942670;28;40483;-80
2023/04/10 10:52:39;;;;;;;7.75;5.63;;;15.30;99.90;;;;;;4940671;28;39773;-79
2023/04/10 10:55:23;;;;;;;6.28;5.05;;;15.10;99.90;;;;;;4936346;28;39332;-79
2023/04/10 10:57:54;;;;;;;6.53;4.70;;;15.30;99.90;;;;;;4941915;28;37492;-78
2023/04/10 11:00:22;;;;;;;5.63;4.50;;;15.10;99.90;;;;;;4930471;28;36087;-78
2023/04/10 11:03:17;;;;;;;7.15;5.07;;;15.20;99.90;;;;;;4919751;28;47251;-78
2023/04/10 11:05:54;;;;;;;6.88;5.13;;;15.30;99.90;;;;;;4898974;29;47384;-80
2023/04/10 11:08:33;;;;;;;7.38;5.05;;;15.30;99.90;;;;;;4903227;29;37264;-81
2023/04/10 11:11:17;;;;;;;9.48;5.38;;;15.20;99.90;;;;;;4902015;29;37346;-80
2023/04/10 11:13:52;;;;;;;4.88;4.38;;;15.20;99.90;;;;;;4899584;29;47859;-79
2023/04/10 11:16:21;;;;;;;7.32;5.05;;;15.30;99.90;;;;;;4904918;29;39394;-79
2023/04/10 11:18:50;;;;;;;10.90;5.82;;;15.30;99.90;;;;;;4900249;29;38962;-78
2023/04/10 11:21:21;;;;;;;9.02;4.80;;;15.30;99.90;;;;;;4904687;29;36437;-79
2023/04/10 11:23:54;;;;;;;5.95;4.88;;;15.40;99.90;;;;;;4900081;29;37725;-79
2023/04/10 11:26:46;;;;;;;5.78;5.05;;;15.50;99.90;;;;;;4899274;29;39411;-78
2023/04/10 11:29:18;;;;;;;7.47;5.07;;;15.40;99.90;;;;;;4898689;29;39919;-78
2023/04/10 11:32:11;;;;;;;14.13;5.10;;;15.30;99.90;;;;;;4909949;29;35955;-78
2023/04/10 11:34:42;;;;;;;;;;;15.10;99.90;;;;;;4904288;29;46882;-77
2023/04/10 11:37:09;;;;;;;7.47;5.10;;;15.10;99.90;;;;;;4918628;28;38949;-77
2023/04/10 11:39:35;;;;;;;5.72;5.07;;;15.10;99.90;;;;;;4919914;29;38176;-77
2023/04/10 11:42:01;;;;;;;6.88;4.90;;;15.10;99.90;;;;;;4910979;29;36458;-77
2023/04/10 11:44:34;;;;;;;8.18;5.00;;;15.10;99.90;;;;;;4913526;29;48919;-76
2023/04/10 11:47:00;;;;;;;;;;;15.10;99.90;;;;;;4911000;29;38646;-77
2023/04/10 11:49:30;;;;;;;7.47;4.65;;;15.20;99.90;;;;;;4911192;28;38196;-77
2023/04/10 11:51:56;;;;;;;7.57;5.45;;;15.20;99.90;;;;;;4915664;29;36010;-77
2023/04/10 11:54:24;;;;;;;5.22;4.72;;;15.10;99.90;;;;;;4918558;28;38453;-77
2023/04/10 11:57:00;;;;;;;7.03;5.10;;;15.10;99.90;;;;;;4915503;29;38693;-77
2023/04/10 11:59:28;;;;;;;7.32;4.95;;;15.00;99.90;;;;;;4914386;29;38688;-77
2023/04/10 12:02:13;;;;;;;7.45;4.63;;;15.00;99.90;;;;;;4915324;29;36063;-77
2023/04/10 12:04:40;;;;;;;5.65;4.95;;;15.00;99.90;;;;;;4940478;28;48641;-76
2023/04/10 12:07:07;;;;;;;7.70;4.82;;;15.00;99.90;;;;;;4933660;28;39163;-77
2023/04/10 12:09:33;;;;;;;7.05;5.05;;;15.00;99.90;;;;;;4941833;28;39444;-77
2023/04/10 12:12:02;;;;;;;6.32;4.35;;;14.90;99.90;;;;;;4928262;28;36981;-77
2023/04/10 12:14:47;;;;;;;6.45;5.30;;;14.90;99.90;;;;;;4922984;28;47191;-77
2023/04/10 12:17:15;;;;;;;6.72;4.72;;;14.80;99.90;;;;;;4919928;28;38711;-77
2023/04/10 12:19:44;;;;;;;6.55;5.82;;;14.60;99.90;;;;;;4925540;28;39141;-77
2023/04/10 12:22:11;;;;;;;4.97;4.28;;;14.50;99.90;;;;;;4941547;28;37882;-77
2023/04/10 12:24:46;;;;;;;6.60;5.13;;;14.40;99.90;;;;;;4915718;28;37726;-77
2023/04/10 12:27:16;;;;;;;6.75;5.68;;;14.20;99.90;;;;;;4929773;28;35433;-77
2023/04/10 12:29:43;;;;;;;7.20;5.63;;;14.10;99.90;;;;;;4938532;28;41446;-76
2023/04/10 12:32:10;;;;;;;7.20;5.65;;;13.90;99.90;;;;;;4937175;28;36722;-78
2023/04/10 12:34:36;;;;;;;7.07;5.70;;;13.80;99.90;;;;;;4924295;28;36965;-77
2023/04/10 12:37:03;;;;;;;7.82;6.03;;;13.60;99.90;;;;;;4925345;28;37899;-77
2023/04/10 12:39:29;;;;;;;10.95;6.55;;;13.50;99.90;;;;;;4927340;28;38458;-77
2023/04/10 12:42:14;;;;;;;9.95;6.95;;;13.50;99.90;;;;;;4923290;28;37541;-78
2023/04/10 12:44:53;;;;;;;8.75;6.70;;;13.40;99.90;;;;;;4933406;28;49020;-77
2023/04/10 12:47:20;;;;;;;8.75;7.55;;;13.30;99.90;;;;;;4935657;28;38577;-78
2023/04/10 12:50:06;;;;;;;7.45;6.68;;;13.20;99.90;;;;;;4950682;28;36788;-78
2023/04/10 12:52:34;;;;;;;14.45;7.70;;;13.10;99.90;;;;;;4926220;28;47305;-78
2023/04/10 12:55:30;;;;;;;9.68;7.95;;;13.00;99.90;;;;;;4921357;28;38850;-78